Time;durP1;ratioP1;P1;durP2;ratioP2;P2;SDS_P1;SDS_P2;PMS_P1;PMS_P2;Temp;Humidity;BMP_temperature;BMP_pressure;BME280_temperature;BME280_humidity;BME280_pressure;Samples;Min_cycle;Max_cycle;Signal;HPM_P1;HPM_P2
2022/10/31 00:00:32;;;;;;;21.38;14.88;;;12.30;99.90;;;;;;7365684;19;20073;-60
2022/10/31 00:02:58;;;;;;;23.25;16.27;;;12.30;99.90;;;;;;7372727;19;20043;-56
2022/10/31 00:05:24;;;;;;;20.42;15.50;;;12.20;99.90;;;;;;7376511;19;20015;-57
2022/10/31 00:07:53;;;;;;;19.02;15.10;;;12.10;99.90;;;;;;7371182;19;20029;-53
2022/10/31 00:10:19;;;;;;;22.00;16.10;;;12.10;99.90;;;;;;7374031;19;20019;-57
2022/10/31 00:12:45;;;;;;;21.30;14.55;;;12.10;99.90;;;;;;7373585;19;20021;-57
2022/10/31 00:15:12;;;;;;;22.38;16.80;;;12.00;99.90;;;;;;7374239;19;20091;-55
2022/10/31 00:17:39;;;;;;;20.40;16.58;;;12.00;99.90;;;;;;7373709;19;20035;-57
2022/10/31 00:20:06;;;;;;;28.15;17.63;;;12.00;99.90;;;;;;7374741;19;20025;-57
2022/10/31 00:22:32;;;;;;;29.00;16.27;;;12.10;99.90;;;;;;7375749;19;20019;-57
2022/10/31 00:24:58;;;;;;;20.80;15.27;;;12.10;99.90;;;;;;7370400;19;20031;-54
2022/10/31 00:27:24;;;;;;;25.70;19.25;;;12.00;99.90;;;;;;7373385;19;20022;-54
2022/10/31 00:29:53;;;;;;;22.70;17.08;;;12.00;99.90;;;;;;7370938;19;20018;-53
2022/10/31 00:32:19;;;;;;;25.23;17.83;;;12.00;99.90;;;;;;7370308;19;20443;-54
2022/10/31 00:34:45;;;;;;;21.23;16.92;;;11.90;99.90;;;;;;7373249;19;20007;-53
2022/10/31 00:37:11;;;;;;;19.90;15.27;;;11.90;99.90;;;;;;7371519;19;20034;-53
2022/10/31 00:39:38;;;;;;;24.98;15.68;;;11.90;99.90;;;;;;7370731;19;20087;-53
2022/10/31 00:42:04;;;;;;;24.73;16.98;;;11.90;99.90;;;;;;7369710;19;20022;-56
2022/10/31 00:44:30;;;;;;;22.40;15.15;;;11.90;99.90;;;;;;7373244;19;20022;-53
2022/10/31 00:46:56;;;;;;;25.92;15.60;;;11.90;99.90;;;;;;7371421;19;20342;-55
2022/10/31 00:49:23;;;;;;;23.85;15.93;;;11.90;99.90;;;;;;7375839;19;20494;-57
2022/10/31 00:51:49;;;;;;;23.92;16.60;;;11.90;99.90;;;;;;7371127;19;20038;-57
2022/10/31 00:54:15;;;;;;;21.42;16.67;;;11.90;99.90;;;;;;7372643;19;20496;-53
2022/10/31 00:56:41;;;;;;;23.50;15.43;;;11.90;99.90;;;;;;7373430;19;20411;-55
2022/10/31 00:59:08;;;;;;;24.52;16.77;;;11.90;99.90;;;;;;7369376;19;20017;-54
2022/10/31 01:01:35;;;;;;;24.10;16.10;;;11.90;99.90;;;;;;7369232;19;20018;-53
2022/10/31 01:04:01;;;;;;;19.17;14.55;;;11.80;99.90;;;;;;7365944;19;20014;-54
2022/10/31 01:06:27;;;;;;;16.40;12.82;;;11.80;99.90;;;;;;7369399;19;20017;-54
2022/10/31 01:08:56;;;;;;;16.50;13.35;;;11.70;99.90;;;;;;7367981;19;20014;-53
2022/10/31 01:11:23;;;;;;;18.00;13.95;;;11.70;99.90;;;;;;7370873;19;20342;-52
2022/10/31 01:13:52;;;;;;;21.15;14.52;;;11.60;99.90;;;;;;7376188;19;20478;-57
2022/10/31 01:16:21;;;;;;;20.48;14.48;;;11.60;99.90;;;;;;7369159;19;20017;-56
2022/10/31 01:18:47;;;;;;;24.40;16.33;;;11.50;99.90;;;;;;7373539;19;20525;-57
2022/10/31 01:21:17;;;;;;;18.48;15.23;;;11.60;99.90;;;;;;7373872;19;20015;-56
2022/10/31 01:23:43;;;;;;;20.67;15.50;;;11.60;99.90;;;;;;7374473;19;20018;-54
2022/10/31 01:26:16;;;;;;;19.45;15.10;;;11.60;99.90;;;;;;7368115;19;20588;-56
2022/10/31 01:28:48;;;;;;;21.63;14.30;;;11.60;99.90;;;;;;7365411;19;20371;-55
2022/10/31 01:31:16;;;;;;;21.42;14.95;;;11.60;99.90;;;;;;7361064;19;20481;-56
2022/10/31 01:33:43;;;;;;;24.98;16.23;;;11.60;99.90;;;;;;7360984;19;20025;-55
2022/10/31 01:36:21;;;;;;;22.15;15.80;;;11.70;99.90;;;;;;7361559;19;20026;-55
2022/10/31 01:38:52;;;;;;;21.60;15.43;;;11.70;99.90;;;;;;7361163;19;21229;-55
2022/10/31 01:41:21;;;;;;;21.63;15.85;;;11.70;99.90;;;;;;7363033;19;20022;-55
2022/10/31 01:43:53;;;;;;;20.15;14.63;;;11.70;99.90;;;;;;7360933;19;20363;-54
2022/10/31 01:46:31;;;;;;;27.10;15.38;;;11.70;99.90;;;;;;7360423;19;20026;-54
2022/10/31 01:49:01;;;;;;;16.48;13.52;;;11.60;99.90;;;;;;7367795;19;20042;-55
2022/10/31 01:51:31;;;;;;;20.40;14.18;;;11.50;99.90;;;;;;7368908;19;20429;-54
2022/10/31 01:54:03;;;;;;;19.83;13.50;;;11.50;99.90;;;;;;7367350;19;20561;-54
2022/10/31 01:56:29;;;;;;;;;;;11.40;99.90;;;;;;7367283;19;20030;-54
2022/10/31 01:58:57;;;;;;;20.05;13.23;;;11.40;99.90;;;;;;7366822;19;19922;-54
2022/10/31 02:01:24;;;;;;;17.45;12.63;;;11.30;99.90;;;;;;7371857;19;20015;-56
2022/10/31 02:03:51;;;;;;;13.88;11.70;;;11.30;99.90;;;;;;7367367;19;20022;-55
2022/10/31 02:06:27;;;;;;;17.42;12.30;;;11.20;99.90;;;;;;7366581;19;20549;-54
2022/10/31 02:08:56;;;;;;;18.40;12.57;;;11.20;99.90;;;;;;7365116;19;20063;-54
2022/10/31 02:11:23;;;;;;;17.80;12.00;;;11.10;99.90;;;;;;7368870;19;20458;-55
2022/10/31 02:13:49;;;;;;;16.83;13.45;;;11.10;99.90;;;;;;7367588;19;20026;-54
2022/10/31 02:16:16;;;;;;;18.58;12.63;;;11.10;99.90;;;;;;7367827;19;20299;-55
2022/10/31 02:18:44;;;;;;;13.90;10.93;;;11.10;99.90;;;;;;7369119;19;20018;-55
2022/10/31 02:21:13;;;;;;;17.45;12.15;;;11.00;99.90;;;;;;7377660;19;20014;-55
2022/10/31 02:24:31;;;;;;;17.52;12.05;;;11.00;99.90;;;;;;7379760;19;20052;-55
2022/10/31 02:27:25;;;;;;;17.17;13.25;;;10.90;99.90;;;;;;7378045;19;20703;-57
2022/10/31 02:30:18;;;;;;;18.63;11.50;;;10.90;99.90;;;;;;7376656;19;20509;-57
2022/10/31 02:33:18;;;;;;;15.68;12.85;;;10.90;99.90;;;;;;7380221;19;20565;-55
2022/10/31 02:36:12;;;;;;;17.92;12.70;;;10.90;99.90;;;;;;7380130;19;20029;-55
2022/10/31 02:39:10;;;;;;;17.38;12.93;;;10.80;99.90;;;;;;7377724;19;20037;-56
2022/10/31 02:41:44;;;;;;;14.35;10.77;;;10.80;99.90;;;;;;7371707;19;20030;-57
2022/10/31 02:44:22;;;;;;;14.05;11.10;;;10.70;99.90;;;;;;7373714;19;20035;-57
2022/10/31 02:46:53;;;;;;;14.70;11.05;;;10.60;99.90;;;;;;7369374;19;20390;-57
2022/10/31 02:49:22;;;;;;;19.70;13.05;;;10.60;99.90;;;;;;7376648;19;20018;-56
2022/10/31 02:51:48;;;;;;;19.33;14.02;;;10.60;99.90;;;;;;7374307;19;20014;-57
2022/10/31 02:54:24;;;;;;;16.90;11.98;;;10.60;99.90;;;;;;7375615;19;20018;-54
2022/10/31 02:57:07;;;;;;;16.13;12.32;;;10.50;99.90;;;;;;7374337;19;20026;-55
2022/10/31 02:59:35;;;;;;;16.38;12.40;;;10.50;99.90;;;;;;7377820;19;20095;-55
2022/10/31 03:02:44;;;;;;;15.35;11.10;;;10.50;99.90;;;;;;7369120;19;20074;-55
2022/10/31 03:05:45;;;;;;;15.02;12.10;;;10.40;99.90;;;;;;7370295;19;20022;-55
2022/10/31 03:08:15;;;;;;;16.25;11.18;;;10.30;99.90;;;;;;7369048;19;20034;-53
2022/10/31 03:10:58;;;;;;;17.25;13.30;;;10.20;99.90;;;;;;7359458;19;20018;-57
2022/10/31 03:13:43;;;;;;;29.98;13.50;;;10.20;99.90;;;;;;7365495;19;20014;-57
2022/10/31 03:16:32;;;;;;;15.40;10.75;;;10.30;99.90;;;;;;7357796;19;20018;-54
2022/10/31 03:19:10;;;;;;;15.07;11.45;;;10.20;99.90;;;;;;7359697;19;20021;-54
2022/10/31 03:21:45;;;;;;;15.52;11.18;;;10.10;99.90;;;;;;7361965;19;20022;-54
2022/10/31 03:24:13;;;;;;;17.55;11.82;;;10.00;99.90;;;;;;7361717;19;20023;-53
2022/10/31 03:26:44;;;;;;;15.55;10.93;;;10.00;99.90;;;;;;7360543;19;20078;-54
2022/10/31 03:29:15;;;;;;;15.20;10.63;;;9.90;99.90;;;;;;7358799;19;20482;-55
2022/10/31 03:31:53;;;;;;;16.00;11.07;;;9.90;99.90;;;;;;7363662;19;20025;-55
2022/10/31 03:34:22;;;;;;;14.50;11.15;;;9.90;99.90;;;;;;7359566;19;20388;-54
2022/10/31 03:36:53;;;;;;;11.77;9.20;;;9.80;99.90;;;;;;7361959;19;20773;-55
2022/10/31 03:39:22;;;;;;;13.57;10.35;;;9.80;99.90;;;;;;7357293;19;20023;-54
2022/10/31 03:42:05;;;;;;;14.23;10.90;;;9.80;99.90;;;;;;7362257;19;20010;-54
2022/10/31 03:44:34;;;;;;;13.68;10.85;;;9.80;99.90;;;;;;7361452;19;20463;-52
2022/10/31 03:47:04;;;;;;;14.25;11.57;;;9.70;99.90;;;;;;7359989;19;20014;-55
2022/10/31 03:49:32;;;;;;;15.32;11.55;;;9.70;99.90;;;;;;7358956;19;20015;-52
2022/10/31 03:52:44;;;;;;;17.75;13.50;;;9.70;99.90;;;;;;7360636;19;20809;-55
2022/10/31 03:55:16;;;;;;;14.52;11.88;;;9.70;99.90;;;;;;7355368;19;20026;-54
2022/10/31 03:57:51;;;;;;;18.42;11.77;;;9.70;99.90;;;;;;7366385;19;20024;-55
2022/10/31 04:00:19;;;;;;;12.70;10.55;;;9.70;99.90;;;;;;7361596;19;20026;-55
2022/10/31 04:03:09;;;;;;;14.52;11.48;;;9.60;99.90;;;;;;7363085;19;20086;-57
2022/10/31 04:05:38;;;;;;;17.10;11.93;;;9.60;99.90;;;;;;7357226;19;20093;-54
2022/10/31 04:08:08;;;;;;;16.35;10.80;;;9.50;99.90;;;;;;7355154;19;20582;-54
2022/10/31 04:10:38;;;;;;;13.20;10.98;;;9.40;99.90;;;;;;7359183;19;20722;-54
2022/10/31 04:13:14;;;;;;;14.85;10.90;;;9.40;99.90;;;;;;7357349;19;20023;-52
2022/10/31 04:15:47;;;;;;;19.55;11.10;;;9.30;99.90;;;;;;7359808;19;20018;-54
2022/10/31 04:18:15;;;;;;;14.57;11.35;;;9.30;99.90;;;;;;7360110;19;20021;-53
2022/10/31 04:20:42;;;;;;;12.50;9.85;;;9.30;99.90;;;;;;7359849;19;20026;-54
2022/10/31 04:23:22;;;;;;;15.40;11.57;;;9.20;99.90;;;;;;7362369;19;20029;-57
2022/10/31 04:25:50;;;;;;;15.15;10.63;;;9.30;99.90;;;;;;7359089;19;20111;-53
2022/10/31 04:28:18;;;;;;;13.65;10.52;;;9.20;99.90;;;;;;7360708;19;20014;-54
2022/10/31 04:30:44;;;;;;;14.30;10.82;;;9.20;99.90;;;;;;7362394;19;20021;-57
2022/10/31 04:33:11;;;;;;;13.60;10.65;;;9.20;99.90;;;;;;7358868;19;20391;-56
2022/10/31 04:35:39;;;;;;;15.75;10.45;;;9.20;99.90;;;;;;7360562;19;20018;-54
2022/10/31 04:38:05;;;;;;;13.75;10.65;;;9.10;99.90;;;;;;7358446;19;20533;-54
2022/10/31 04:40:32;;;;;;;15.27;12.02;;;9.10;99.90;;;;;;7360799;19;20014;-54
2022/10/31 04:43:07;;;;;;;16.60;12.23;;;9.10;99.90;;;;;;7357449;19;20010;-52
2022/10/31 04:45:33;;;;;;;16.92;11.95;;;9.00;99.90;;;;;;7360679;19;20019;-53
2022/10/31 04:48:00;;;;;;;24.73;13.50;;;9.00;99.90;;;;;;7357739;19;20014;-53
2022/10/31 04:50:26;;;;;;;16.92;12.32;;;9.00;99.90;;;;;;7362062;19;20099;-53
2022/10/31 04:52:52;;;;;;;16.02;12.25;;;9.00;99.90;;;;;;7360096;19;20025;-57
2022/10/31 04:55:24;;;;;;;;;;;9.00;99.90;;;;;;7368976;19;20414;-57
2022/10/31 04:58:16;;;;;;;18.75;12.98;;;9.00;99.90;;;;;;7372498;19;20005;-56
2022/10/31 05:00:43;;;;;;;16.88;12.32;;;9.00;99.90;;;;;;7372380;19;20022;-57
2022/10/31 05:03:10;;;;;;;16.00;12.40;;;9.00;99.90;;;;;;7369722;19;20081;-57
2022/10/31 05:05:37;;;;;;;17.08;12.27;;;9.00;99.90;;;;;;7371157;19;20050;-57
2022/10/31 05:08:03;;;;;;;13.60;11.45;;;9.00;99.90;;;;;;7369635;19;20363;-57
2022/10/31 05:10:31;;;;;;;13.90;11.48;;;8.90;99.90;;;;;;7373032;19;20498;-57
2022/10/31 05:13:01;;;;;;;15.48;11.48;;;8.90;99.90;;;;;;7369009;19;20402;-57
2022/10/31 05:15:45;;;;;;;13.10;10.65;;;8.90;99.90;;;;;;7372211;19;20445;-57
2022/10/31 05:18:34;;;;;;;12.35;10.30;;;8.80;99.90;;;;;;7367948;19;20438;-56
2022/10/31 05:21:20;;;;;;;15.63;9.70;;;8.80;99.90;;;;;;7367926;19;20030;-56
2022/10/31 05:23:52;;;;;;;13.35;10.05;;;8.80;99.90;;;;;;7371016;19;20018;-56
2022/10/31 05:26:20;;;;;;;15.65;12.57;;;8.70;99.90;;;;;;7367677;19;20117;-56
2022/10/31 05:28:47;;;;;;;15.27;12.15;;;8.70;99.90;;;;;;7368562;19;20018;-57
2022/10/31 05:31:13;;;;;;;62.38;14.68;;;8.70;99.90;;;;;;7368600;19;20479;-57
2022/10/31 05:33:41;;;;;;;68.90;12.55;;;8.70;99.90;;;;;;7368032;19;20018;-51
2022/10/31 05:36:46;;;;;;;29.98;11.10;;;8.70;99.90;;;;;;7368681;19;20383;-50
2022/10/31 05:39:18;;;;;;;105.68;12.27;;;8.70;99.90;;;;;;7370351;19;20142;-53
2022/10/31 05:41:49;;;;;;;24.40;9.95;;;8.60;99.90;;;;;;7369943;19;20390;-58
2022/10/31 05:44:20;;;;;;;24.15;11.25;;;8.70;99.90;;;;;;7367048;19;20026;-57
2022/10/31 05:47:05;;;;;;;20.83;10.63;;;8.60;99.90;;;;;;7368591;19;20026;-57
2022/10/31 05:49:50;;;;;;;20.08;10.10;;;8.60;99.90;;;;;;7372739;19;20400;-56
2022/10/31 05:52:35;;;;;;;20.77;9.02;;;8.60;99.90;;;;;;7372772;19;20038;-50
2022/10/31 05:55:10;;;;;;;16.20;9.18;;;8.50;99.90;;;;;;7369460;19;20474;-57
2022/10/31 05:57:40;;;;;;;12.10;9.65;;;8.50;99.90;;;;;;7368135;19;20023;-57
2022/10/31 06:00:07;;;;;;;13.10;10.23;;;8.50;99.90;;;;;;7369377;19;20023;-58
2022/10/31 06:02:47;;;;;;;11.80;9.25;;;8.50;99.90;;;;;;7372673;19;20489;-58
2022/10/31 06:05:29;;;;;;;10.00;8.07;;;8.50;99.90;;;;;;7367676;19;20461;-58
2022/10/31 06:07:58;;;;;;;40.47;10.27;;;8.40;99.90;;;;;;7370652;19;20018;-50
2022/10/31 06:10:25;;;;;;;20.95;10.48;;;8.40;99.90;;;;;;7371824;19;20468;-53
2022/10/31 06:12:54;;;;;;;13.52;10.23;;;8.50;99.90;;;;;;7365785;19;20022;-58
2022/10/31 06:15:33;;;;;;;12.32;9.77;;;8.40;99.90;;;;;;7364919;19;20022;-53
2022/10/31 06:18:05;;;;;;;34.03;11.80;;;8.40;99.90;;;;;;7364130;19;20026;-58
2022/10/31 06:20:43;;;;;;;18.35;10.60;;;8.40;99.90;;;;;;7371175;19;20042;-58
2022/10/31 06:23:11;;;;;;;11.57;9.68;;;8.40;99.90;;;;;;7365920;19;20033;-58
2022/10/31 06:25:40;;;;;;;15.73;10.18;;;8.40;99.90;;;;;;7360433;19;20021;-58
2022/10/31 06:28:06;;;;;;;12.88;9.13;;;8.40;99.90;;;;;;7356495;19;20022;-58
2022/10/31 06:30:59;;;;;;;13.63;9.80;;;8.40;99.90;;;;;;7367612;19;20015;-58
2022/10/31 06:33:26;;;;;;;12.70;9.00;;;8.40;99.90;;;;;;7377704;19;20093;-58
2022/10/31 06:35:58;;;;;;;14.95;9.13;;;8.40;99.90;;;;;;7375593;19;20351;-59
2022/10/31 06:38:26;;;;;;;15.07;10.23;;;8.40;99.90;;;;;;7374663;19;20359;-56
2022/10/31 06:40:53;;;;;;;11.82;9.13;;;8.40;99.90;;;;;;7375909;19;20573;-56
2022/10/31 06:43:22;;;;;;;14.32;10.07;;;8.40;99.90;;;;;;7375996;19;20019;-56
2022/10/31 06:45:50;;;;;;;15.40;10.25;;;8.40;99.90;;;;;;7369818;19;20022;-56
2022/10/31 06:48:17;;;;;;;15.73;10.30;;;8.40;99.90;;;;;;7374927;19;20450;-55
2022/10/31 06:51:03;;;;;;;14.88;10.57;;;8.40;99.90;;;;;;7374211;19;20014;-56
2022/10/31 06:53:30;;;;;;;14.40;10.02;;;8.30;99.90;;;;;;7363895;19;20014;-56
2022/10/31 06:55:57;;;;;;;13.30;11.10;;;8.40;99.90;;;;;;7359401;19;20046;-56
2022/10/31 06:58:24;;;;;;;14.63;11.18;;;8.40;99.90;;;;;;7362923;19;20338;-57
2022/10/31 07:00:52;;;;;;;12.88;11.57;;;8.40;99.90;;;;;;7359026;19;20766;-57
2022/10/31 07:03:20;;;;;;;14.68;13.18;;;8.50;99.90;;;;;;7361131;19;20579;-57
2022/10/31 07:05:47;;;;;;;14.23;12.73;;;8.60;99.90;;;;;;7364116;19;20461;-57
2022/10/31 07:08:15;;;;;;;14.73;12.18;;;8.60;99.90;;;;;;7361054;19;20014;-57
2022/10/31 07:10:43;;;;;;;13.73;12.32;;;8.60;99.90;;;;;;7364595;19;20014;-57
2022/10/31 07:13:14;;;;;;;13.55;11.77;;;8.60;99.90;;;;;;7364028;19;20399;-57
2022/10/31 07:15:46;;;;;;;17.35;12.38;;;8.60;99.90;;;;;;7360740;19;20486;-57
2022/10/31 07:18:13;;;;;;;13.80;12.18;;;8.60;99.90;;;;;;7363463;19;20018;-57
2022/10/31 07:20:39;;;;;;;14.20;12.70;;;8.60;99.90;;;;;;7363195;19;20014;-57
2022/10/31 07:23:05;;;;;;;13.80;11.93;;;8.60;99.90;;;;;;7361972;19;20034;-57
2022/10/31 07:25:33;;;;;;;12.00;10.80;;;8.60;99.90;;;;;;7361566;19;20022;-57
2022/10/31 07:28:05;;;;;;;15.38;12.70;;;8.60;99.90;;;;;;7359211;19;20028;-57
2022/10/31 07:30:32;;;;;;;15.75;12.70;;;8.60;99.90;;;;;;7362102;19;20027;-56
2022/10/31 07:32:58;;;;;;;16.02;12.20;;;8.70;99.90;;;;;;7362996;19;20026;-57
2022/10/31 07:35:37;;;;;;;21.88;14.57;;;8.80;99.90;;;;;;7362821;19;20573;-57
2022/10/31 07:38:09;;;;;;;23.23;15.55;;;8.80;99.90;;;;;;7363899;19;20526;-57
2022/10/31 07:40:35;;;;;;;24.48;15.82;;;8.90;99.90;;;;;;7360689;19;20019;-57
2022/10/31 07:43:03;;;;;;;35.97;17.75;;;9.00;99.90;;;;;;7360947;19;20434;-57
2022/10/31 07:45:55;;;;;;;26.70;16.70;;;9.20;99.90;;;;;;7358518;19;20047;-56
2022/10/31 07:48:43;;;;;;;38.53;16.27;;;9.30;99.90;;;;;;7360906;19;20022;-56
2022/10/31 07:51:29;;;;;;;32.42;15.70;;;9.40;99.90;;;;;;7362292;19;20635;-55
2022/10/31 07:54:14;;;;;;;22.33;15.80;;;9.50;99.90;;;;;;7365784;19;20494;-57
2022/10/31 07:56:42;;;;;;;39.13;15.05;;;9.60;99.90;;;;;;7355644;19;20371;-57
2022/10/31 07:59:09;;;;;;;33.42;15.43;;;9.80;99.90;;;;;;7356132;19;20375;-57
2022/10/31 08:01:35;;;;;;;37.05;15.73;;;9.90;99.90;;;;;;7357907;19;21191;-57
2022/10/31 08:04:24;;;;;;;28.67;13.85;;;9.90;99.90;;;;;;7360998;19;20018;-58
2022/10/31 08:07:29;;;;;;;26.60;12.60;;;10.10;99.90;;;;;;7354754;19;20029;-57
2022/10/31 08:10:02;;;;;;;29.10;14.82;;;10.10;99.90;;;;;;7358007;19;20021;-58
2022/10/31 08:12:31;;;;;;;21.75;14.23;;;10.20;99.90;;;;;;7359996;19;20122;-57
2022/10/31 08:14:58;;;;;;;23.10;14.77;;;10.20;99.90;;;;;;7357404;19;20026;-57
2022/10/31 08:17:25;;;;;;;22.27;14.18;;;10.20;99.90;;;;;;7357881;19;20466;-57
2022/10/31 08:19:55;;;;;;;30.55;15.13;;;10.30;99.90;;;;;;7353671;19;20050;-58
2022/10/31 08:22:27;;;;;;;33.58;13.77;;;10.50;99.90;;;;;;7350607;19;21366;-57
2022/10/31 08:24:53;;;;;;;24.02;15.80;;;10.50;99.90;;;;;;7369470;19;20043;-57
2022/10/31 08:27:21;;;;;;;35.03;17.58;;;10.60;99.90;;;;;;7366853;19;20018;-57
2022/10/31 08:29:47;;;;;;;58.30;18.85;;;10.80;99.90;;;;;;7371704;19;20026;-57
2022/10/31 08:32:14;;;;;;;44.00;18.15;;;10.80;99.90;;;;;;7370753;19;20615;-58
2022/10/31 08:35:13;;;;;;;33.63;18.40;;;11.00;99.90;;;;;;7371720;19;20031;-58
2022/10/31 08:37:58;;;;;;;33.15;18.73;;;11.20;99.90;;;;;;7368932;19;20057;-57
2022/10/31 08:40:28;;;;;;;34.58;19.48;;;11.30;99.90;;;;;;7370857;19;20022;-57
2022/10/31 08:43:06;;;;;;;39.53;20.08;;;11.40;99.90;;;;;;7368976;19;20505;-57
2022/10/31 08:45:34;;;;;;;31.63;20.67;;;11.50;99.90;;;;;;7368437;19;20589;-57
2022/10/31 08:48:06;;;;;;;32.40;20.80;;;11.60;99.90;;;;;;7365105;19;20026;-56
2022/10/31 08:50:35;;;;;;;27.63;19.55;;;11.70;99.90;;;;;;7369137;19;20022;-57
2022/10/31 08:53:10;;;;;;;24.08;19.38;;;11.80;99.90;;;;;;7370323;19;20018;-57
2022/10/31 08:55:39;;;;;;;24.88;20.42;;;11.80;99.90;;;;;;7366073;19;20022;-55
2022/10/31 08:58:22;;;;;;;27.63;21.63;;;11.80;99.90;;;;;;7365314;19;20089;-57
2022/10/31 09:00:53;;;;;;;26.47;20.90;;;11.90;99.90;;;;;;7363769;19;20030;-57
2022/10/31 09:03:26;;;;;;;26.70;21.58;;;11.90;99.90;;;;;;7366827;19;20415;-57
2022/10/31 09:05:58;;;;;;;25.73;20.95;;;11.80;99.90;;;;;;7363869;19;20097;-57
2022/10/31 09:08:28;;;;;;;34.60;19.83;;;11.80;99.90;;;;;;7365685;19;20019;-57
2022/10/31 09:10:57;;;;;;;24.83;21.23;;;11.90;99.90;;;;;;7358952;19;20014;-58
2022/10/31 09:13:42;;;;;;;28.45;21.27;;;11.90;99.90;;;;;;7359177;19;20034;-57
2022/10/31 09:16:26;;;;;;;24.75;20.13;;;11.80;99.90;;;;;;7360110;19;20014;-57
2022/10/31 09:18:54;;;;;;;23.33;20.35;;;12.00;99.90;;;;;;7357467;19;20014;-57
2022/10/31 09:21:20;;;;;;;23.98;21.38;;;12.10;99.90;;;;;;7354850;19;20591;-58
2022/10/31 09:23:47;;;;;;;25.52;20.67;;;12.40;99.90;;;;;;7355107;19;20482;-58
2022/10/31 09:26:15;;;;;;;26.40;19.85;;;12.60;99.90;;;;;;7357287;19;20044;-57
2022/10/31 09:28:46;;;;;;;25.08;20.92;;;12.60;99.90;;;;;;7353333;19;20018;-57
2022/10/31 09:31:15;;;;;;;21.92;19.50;;;12.60;99.90;;;;;;7352886;19;20505;-58
2022/10/31 09:33:55;;;;;;;22.25;19.10;;;12.60;99.90;;;;;;7352955;19;20683;-57
2022/10/31 09:36:39;;;;;;;21.75;18.35;;;12.70;99.90;;;;;;7354736;19;20018;-58
2022/10/31 09:39:32;;;;;;;23.70;19.80;;;12.80;99.90;;;;;;7355742;19;20019;-57
2022/10/31 09:42:48;;;;;;;21.45;18.92;;;12.90;99.90;;;;;;7356330;19;20063;-57
2022/10/31 09:45:25;;;;;;;19.92;17.83;;;13.00;99.90;;;;;;7351032;19;20354;-58
2022/10/31 09:48:09;;;;;;;21.02;18.48;;;13.00;99.90;;;;;;7353947;19;20099;-58
2022/10/31 09:51:00;;;;;;;21.42;18.92;;;13.10;99.90;;;;;;7354769;19;20029;-58
2022/10/31 09:54:21;;;;;;;21.67;18.85;;;13.30;99.90;;;;;;7355297;19;20486;-57
2022/10/31 09:56:48;;;;;;;23.17;18.75;;;13.60;99.90;;;;;;7354761;19;20036;-57
2022/10/31 09:59:44;;;;;;;22.45;19.92;;;13.90;99.90;;;;;;7357595;19;20022;-57
2022/10/31 10:02:22;;;;;;;21.00;18.02;;;14.10;99.90;;;;;;7356925;19;20065;-57
2022/10/31 10:04:59;;;;;;;20.92;18.30;;;14.20;99.90;;;;;;7352680;19;20439;-58
2022/10/31 10:07:49;;;;;;;21.23;17.88;;;14.30;99.90;;;;;;7354464;19;20016;-57
2022/10/31 10:10:36;;;;;;;21.10;17.23;;;14.30;99.90;;;;;;7361367;19;20018;-57
2022/10/31 10:13:32;;;;;;;19.00;16.92;;;14.20;99.90;;;;;;7367149;19;20457;-57
2022/10/31 10:16:26;;;;;;;20.27;16.75;;;14.40;99.90;;;;;;7362033;19;20015;-57
2022/10/31 10:19:23;;;;;;;18.00;16.10;;;14.60;99.90;;;;;;7364054;19;20388;-57
2022/10/31 10:22:14;;;;;;;22.17;17.17;;;15.00;99.90;;;;;;7368032;19;20029;-56
2022/10/31 10:25:10;;;;;;;19.85;15.70;;;15.30;99.90;;;;;;7372948;19;20014;-56
2022/10/31 10:27:54;;;;;;;18.35;16.15;;;15.30;99.90;;;;;;7372378;19;20047;-56
2022/10/31 10:30:32;;;;;;;19.88;15.93;;;15.50;99.90;;;;;;7369221;19;20767;-57
2022/10/31 10:33:12;;;;;;;19.40;15.70;;;15.70;99.90;;;;;;7377125;19;20093;-57
2022/10/31 10:36:14;;;;;;;18.67;16.27;;;16.10;99.90;;;;;;7373578;19;20035;-56
2022/10/31 10:38:56;;;;;;;17.65;14.60;;;17.10;99.90;;;;;;7371827;19;20041;-56
2022/10/31 10:41:24;;;;;;;18.42;14.10;;;17.40;99.90;;;;;;7370944;19;20413;-56
2022/10/31 10:43:51;;;;;;;17.48;14.65;;;17.70;99.90;;;;;;7367795;19;20101;-56
2022/10/31 10:49:46;;;;;;;15.65;13.45;;;17.90;99.90;;;;;;7376403;19;20025;-57
2022/10/31 10:52:36;;;;;;;14.55;13.05;;;17.80;99.90;;;;;;7369698;19;20019;-57
2022/10/31 10:55:11;;;;;;;16.10;13.18;;;17.80;99.90;;;;;;7372412;19;20453;-56
2022/10/31 10:57:58;;;;;;;14.98;13.30;;;17.60;99.90;;;;;;7375910;19;20468;-56
2022/10/31 11:00:46;;;;;;;16.05;13.52;;;17.60;99.90;;;;;;7373286;19;20018;-57
2022/10/31 11:03:14;;;;;;;13.95;11.68;;;17.60;99.90;;;;;;7369545;19;20088;-57
2022/10/31 11:06:01;;;;;;;15.75;13.05;;;18.00;99.90;;;;;;7370651;19;20030;-57
2022/10/31 11:08:28;;;;;;;13.15;11.73;;;18.30;99.90;;;;;;7372886;19;20014;-56
2022/10/31 11:11:25;;;;;;;13.52;11.07;;;18.50;99.90;;;;;;7371283;19;20331;-57
2022/10/31 11:14:02;;;;;;;12.45;11.15;;;18.40;99.90;;;;;;7367468;19;20025;-56
2022/10/31 11:16:38;;;;;;;13.88;10.80;;;17.90;99.90;;;;;;7370140;19;20714;-56
2022/10/31 11:19:27;;;;;;;12.60;9.85;;;17.70;99.90;;;;;;7372985;19;20025;-56
2022/10/31 11:21:54;;;;;;;16.52;10.93;;;17.40;99.90;;;;;;7374051;19;20767;-56
2022/10/31 11:24:27;;;;;;;12.63;11.07;;;17.00;99.90;;;;;;7369510;19;20026;-56
2022/10/31 11:27:29;;;;;;;12.00;10.57;;;16.70;99.90;;;;;;7374081;19;20011;-56
2022/10/31 11:30:04;;;;;;;;;;;16.70;99.90;;;;;;7370220;19;20022;-56
2022/10/31 11:32:32;;;;;;;12.52;10.85;;;16.50;99.90;;;;;;7370440;19;19918;-57
2022/10/31 11:35:02;;;;;;;12.95;10.40;;;16.40;99.90;;;;;;7372648;19;20023;-59
2022/10/31 11:37:35;;;;;;;14.32;11.15;;;16.30;99.90;;;;;;7374962;19;20789;-56
2022/10/31 11:40:06;;;;;;;15.02;11.35;;;16.30;99.90;;;;;;7372829;19;20018;-56
2022/10/31 11:42:42;;;;;;;15.25;12.60;;;16.30;99.90;;;;;;7370680;19;20070;-56
2022/10/31 11:45:17;;;;;;;13.75;10.77;;;16.20;99.90;;;;;;7373503;19;20393;-56
2022/10/31 11:47:47;;;;;;;12.75;10.90;;;16.30;99.90;;;;;;7373183;19;20023;-56
2022/10/31 11:50:28;;;;;;;16.77;11.88;;;16.50;99.90;;;;;;7370309;19;20538;-56
2022/10/31 11:52:54;;;;;;;16.02;12.57;;;16.80;99.90;;;;;;7372655;19;20494;-57
2022/10/31 11:55:37;;;;;;;15.65;12.00;;;17.10;99.90;;;;;;7368679;19;20418;-56
2022/10/31 11:58:04;;;;;;;14.82;11.68;;;17.20;99.90;;;;;;7373915;19;20033;-56
2022/10/31 12:00:40;;;;;;;14.80;10.75;;;17.50;99.90;;;;;;7369275;19;20469;-56
2022/10/31 12:03:22;;;;;;;14.38;10.43;;;17.70;99.90;;;;;;7368936;19;20026;-56
2022/10/31 12:06:14;;;;;;;13.25;9.43;;;17.70;99.90;;;;;;7367738;19;20042;-56
2022/10/31 12:08:42;;;;;;;15.93;10.45;;;17.60;99.90;;;;;;7368822;19;20119;-56
2022/10/31 12:11:26;;;;;;;11.15;9.80;;;17.70;99.90;;;;;;7371031;19;20563;-56
2022/10/31 12:14:01;;;;;;;13.40;9.63;;;18.40;99.90;;;;;;7370458;19;20029;-57
2022/10/31 12:16:49;;;;;;;12.75;9.68;;;18.60;99.90;;;;;;7372655;19;20611;-57
2022/10/31 12:19:40;;;;;;;17.38;13.15;;;18.40;99.90;;;;;;7369833;19;20517;-57
2022/10/31 12:22:20;;;;;;;15.27;10.25;;;18.00;99.90;;;;;;7371448;19;20401;-57
2022/10/31 12:24:55;;;;;;;14.80;9.07;;;17.60;99.90;;;;;;7367161;19;20015;-56
2022/10/31 12:27:46;;;;;;;13.00;10.13;;;17.20;99.90;;;;;;7367674;19;20438;-56
2022/10/31 12:30:21;;;;;;;18.38;11.55;;;17.00;99.90;;;;;;7367541;19;20378;-56
2022/10/31 12:33:13;;;;;;;15.30;11.82;;;16.90;99.90;;;;;;7369035;19;20534;-55
2022/10/31 12:36:12;;;;;;;14.05;10.07;;;16.70;99.90;;;;;;7366148;19;20502;-55
2022/10/31 12:38:59;;;;;;;15.25;11.85;;;16.50;99.90;;;;;;7369247;19;20014;-55
2022/10/31 12:42:08;;;;;;;17.77;10.57;;;16.40;99.90;;;;;;7363447;19;20462;-56
2022/10/31 12:44:40;;;;;;;16.65;10.32;;;16.50;99.90;;;;;;7365720;19;20853;-57
2022/10/31 12:47:44;;;;;;;13.55;9.68;;;16.40;99.90;;;;;;7369259;19;20022;-56
2022/10/31 12:50:15;;;;;;;17.23;10.38;;;16.50;99.90;;;;;;7363483;19;20014;-56
2022/10/31 12:53:00;;;;;;;21.80;17.40;;;16.50;99.90;;;;;;7369839;19;20019;-56
2022/10/31 12:55:40;;;;;;;20.45;16.30;;;16.60;99.90;;;;;;7363771;19;20030;-56
2022/10/31 12:58:18;;;;;;;13.40;9.68;;;16.70;99.90;;;;;;7371059;19;20540;-55
2022/10/31 13:00:48;;;;;;;15.68;9.90;;;16.70;99.90;;;;;;7368863;19;20022;-56
2022/10/31 13:03:44;;;;;;;13.40;9.18;;;16.90;99.90;;;;;;7368263;19;20049;-55
2022/10/31 13:06:17;;;;;;;12.80;8.43;;;17.00;99.90;;;;;;7363514;19;20039;-55
2022/10/31 13:08:50;;;;;;;13.50;7.35;;;17.30;99.90;;;;;;7360980;19;20035;-56
2022/10/31 13:11:40;;;;;;;12.18;8.30;;;17.60;99.90;;;;;;7364754;19;20523;-56
2022/10/31 13:14:12;;;;;;;15.43;7.57;;;17.60;99.90;;;;;;7365141;19;20082;-56
2022/10/31 13:16:43;;;;;;;12.55;6.82;;;17.50;99.90;;;;;;7363058;19;20015;-56